createdAt,value
2019-04-20T00:01:46.983Z,3.68
2019-04-20T00:04:25.048Z,3.62
2019-04-20T00:06:54.737Z,3.56
2019-04-20T00:09:31.045Z,3.52
2019-04-20T00:12:10.852Z,3.52
2019-04-20T00:14:38.761Z,3.49
2019-04-20T00:17:09.664Z,3.46
2019-04-20T00:19:47.726Z,3.45
2019-04-20T00:22:24.625Z,3.43
2019-04-20T00:25:20.465Z,3.17
2019-04-20T00:28:24.040Z,3.19
2019-04-20T00:31:04.247Z,3.30
2019-04-20T00:33:28.370Z,3.25
2019-04-20T00:35:46.765Z,3.20
2019-04-20T00:38:21.023Z,3.13
2019-04-20T00:40:58.485Z,3.09
2019-04-20T00:43:32.149Z,3.00
2019-04-20T00:46:09.233Z,2.94
2019-04-20T00:48:46.244Z,2.91
2019-04-20T00:51:39.471Z,2.84
2019-04-20T00:53:48.377Z,2.80
2019-04-20T00:56:18.320Z,2.64
2019-04-20T00:59:03.063Z,2.64
2019-04-20T01:01:46.215Z,2.65
2019-04-20T01:06:53.600Z,2.66
2019-04-20T01:09:24.690Z,2.64
2019-04-20T01:11:56.597Z,2.55
2019-04-20T01:14:37.800Z,2.46
2019-04-20T01:17:11.657Z,2.45
2019-04-20T01:19:37.163Z,2.43
2019-04-20T01:22:13.569Z,2.39
2019-04-20T01:24:46.673Z,2.40
2019-04-20T01:27:36.366Z,2.38
2019-04-20T01:30:03.382Z,2.41
2019-04-20T01:32:35.969Z,2.35
2019-04-20T01:35:11.732Z,2.14
2019-04-20T01:37:54.321Z,2.27
2019-04-20T01:40:11.257Z,2.15
2019-04-20T01:42:42.946Z,2.12
2019-04-20T01:45:25.218Z,2.16
2019-04-20T01:47:54.073Z,2.17
2019-04-20T01:50:27.699Z,2.18
2019-04-20T01:53:09.979Z,2.21
2019-04-20T01:55:46.811Z,2.16
2019-04-20T02:01:09.691Z,2.15
2019-04-20T02:04:03.256Z,2.18
2019-04-20T02:06:39.907Z,2.12
2019-04-20T02:09:15.203Z,2.08
2019-04-20T02:11:49.745Z,2.08
2019-04-20T02:14:29.546Z,2.07
2019-04-20T02:17:04.469Z,2.05
2019-04-20T02:19:41.324Z,1.99
2019-04-20T02:22:13.282Z,1.96
2019-04-20T02:24:36.971Z,1.90
2019-04-20T02:27:10.264Z,1.86
2019-04-20T02:30:07.559Z,1.84
2019-04-20T02:35:44.037Z,1.75
2019-04-20T02:38:39.178Z,1.69
2019-04-20T02:43:46.817Z,1.69
2019-04-20T02:46:10.596Z,1.70
2019-04-20T02:48:54.970Z,1.72
2019-04-20T02:51:22.973Z,1.67
2019-04-20T02:54:06.168Z,1.65
2019-04-20T02:56:36.112Z,1.64
2019-04-20T02:59:31.610Z,1.59
2019-04-20T03:01:38.003Z,1.56
2019-04-20T03:03:54.853Z,1.54
2019-04-20T03:06:38.824Z,1.52
2019-04-20T03:09:22.473Z,1.48
2019-04-20T03:11:58.254Z,1.43
2019-04-20T03:14:21.550Z,1.39
2019-04-20T03:17:03.300Z,1.38
2019-04-20T03:19:29.978Z,1.30
2019-04-20T03:22:09.719Z,1.25
2019-04-20T03:24:48.549Z,1.21
2019-04-20T03:27:21.175Z,1.18
2019-04-20T03:30:22.307Z,1.16
2019-04-20T03:33:09.605Z,1.10
2019-04-20T03:35:22.523Z,1.06
2019-04-20T03:37:52.595Z,1.07
2019-04-20T03:40:22.794Z,1.07
2019-04-20T03:42:43.022Z,0.96
2019-04-20T03:45:19.299Z,1.01
2019-04-20T03:48:01.191Z,0.97
2019-04-20T03:50:46.293Z,0.88
2019-04-20T03:53:24.055Z,0.83
2019-04-20T03:56:03.837Z,0.91
2019-04-20T03:58:46.009Z,0.97
2019-04-20T04:01:58.675Z,1.01
2019-04-20T04:04:14.905Z,1.01
2019-04-20T04:06:37.366Z,1.04
2019-04-20T04:09:14.730Z,1.09
2019-04-20T04:11:51.427Z,1.14
2019-04-20T04:14:09.574Z,1.14
2019-04-20T04:16:47.799Z,1.20
2019-04-20T04:19:22.697Z,1.22
2019-04-20T04:22:04.100Z,1.37
2019-04-20T04:24:35.998Z,1.50
2019-04-20T04:27:09.123Z,1.60
2019-04-20T04:29:51.250Z,1.70
2019-04-20T04:32:50.080Z,1.79
2019-04-20T04:35:00.156Z,1.88
2019-04-20T04:37:33.835Z,2.00
2019-04-20T04:40:14.629Z,2.14
2019-04-20T04:42:42.262Z,2.24
2019-04-20T04:45:01.680Z,2.34
2019-04-20T04:47:28.584Z,2.45
2019-04-20T04:50:09.176Z,2.65
2019-04-20T04:52:44.589Z,2.87
2019-04-20T04:55:17.301Z,3.08
2019-04-20T04:57:41.203Z,3.27
2019-04-20T05:00:17.871Z,3.47
2019-04-20T05:02:53.799Z,3.66
2019-04-20T05:06:01.365Z,3.81
2019-04-20T05:08:25.342Z,3.99
2019-04-20T05:10:49.891Z,4.19
2019-04-20T05:13:25.680Z,4.37
2019-04-20T05:16:14.670Z,4.54
2019-04-20T05:18:59.180Z,4.72
2019-04-20T05:21:39.866Z,4.87
2019-04-20T05:24:41.364Z,5.06
2019-04-20T05:27:34.542Z,5.26
2019-04-20T05:29:49.204Z,5.48
2019-04-20T05:32:32.793Z,5.74
2019-04-20T05:35:15.075Z,5.97
2019-04-20T05:37:54.624Z,6.21
2019-04-20T05:40:29.254Z,6.50
2019-04-20T05:43:13.160Z,6.79
2019-04-20T05:45:39.975Z,7.13
2019-04-20T05:48:11.878Z,7.47
2019-04-20T05:50:52.823Z,7.83
2019-04-20T05:53:27.595Z,8.25
2019-04-20T05:55:57.083Z,8.61
2019-04-20T05:58:34.230Z,8.98
2019-04-20T06:01:08.408Z,9.32
2019-04-20T06:03:37.258Z,9.59
2019-04-20T06:06:17.743Z,9.83
2019-04-20T06:08:54.934Z,10.10
2019-04-20T06:11:25.571Z,10.39
2019-04-20T06:14:05.858Z,10.61
2019-04-20T06:17:08.839Z,10.80
2019-04-20T06:19:39.494Z,10.96
2019-04-20T06:22:57.430Z,11.31
2019-04-20T06:25:39.637Z,11.54
2019-04-20T06:27:52.561Z,11.82
2019-04-20T06:30:19.191Z,12.07
2019-04-20T06:33:52.181Z,12.36
2019-04-20T06:36:23.744Z,12.58
2019-04-20T06:38:56.254Z,12.82
2019-04-20T06:41:26.505Z,13.02
2019-04-20T06:43:57.908Z,13.24
2019-04-20T06:46:29.245Z,13.47
2019-04-20T06:49:04.346Z,13.63
2019-04-20T06:51:34.654Z,13.81
2019-04-20T06:54:36.148Z,14.03
2019-04-20T06:57:14.452Z,14.22
2019-04-20T06:59:42.988Z,14.47
2019-04-20T07:02:23.516Z,14.61
2019-04-20T07:05:05.350Z,14.81
2019-04-20T07:07:27.257Z,15.05
2019-04-20T07:10:09.830Z,15.24
2019-04-20T07:12:27.194Z,15.51
2019-04-20T07:14:55.553Z,15.71
2019-04-20T07:17:54.604Z,15.84
2019-04-20T07:20:30.312Z,16.11
2019-04-20T07:25:37.557Z,16.57
2019-04-20T07:28:12.533Z,16.70
2019-04-20T07:30:45.141Z,16.78
2019-04-20T07:33:21.695Z,16.94
2019-04-20T07:35:50.915Z,17.18
2019-04-20T07:41:02.905Z,17.47
2019-04-20T07:43:32.095Z,17.72
2019-04-20T07:46:10.482Z,18.03
2019-04-20T07:48:39.560Z,18.34
2019-04-20T07:51:04.882Z,18.63
2019-04-20T07:53:45.037Z,18.47
2019-04-20T07:56:30.446Z,18.46
2019-04-20T07:58:47.973Z,18.44
2019-04-20T08:02:00.641Z,18.72
2019-04-20T08:04:36.788Z,18.93
2019-04-20T08:07:01.471Z,19.00
2019-04-20T08:09:39.003Z,19.21
2019-04-20T08:12:34.027Z,19.48
2019-04-20T08:15:11.106Z,19.59
2019-04-20T08:17:37.709Z,19.96
2019-04-20T08:20:06.092Z,20.05
2019-04-20T08:22:42.202Z,20.12
2019-04-20T08:25:08.924Z,20.28
2019-04-20T08:27:48.806Z,20.30
2019-04-20T08:31:14.154Z,20.61
2019-04-20T08:34:04.728Z,20.69
2019-04-20T08:36:47.850Z,20.54
2019-04-20T08:41:37.070Z,20.87
2019-04-20T08:44:39.689Z,20.79
2019-04-20T08:46:49.710Z,21.06
2019-04-20T08:49:26.490Z,21.25
2019-04-20T08:52:05.971Z,21.56
2019-04-20T08:54:28.815Z,21.60
2019-04-20T08:56:47.019Z,22.10
2019-04-20T08:59:15.044Z,22.36
2019-04-20T09:01:46.791Z,22.54
2019-04-20T09:04:33.832Z,22.25
2019-04-20T09:07:06.464Z,22.34
2019-04-20T09:09:49.087Z,22.13
2019-04-20T09:12:21.181Z,22.37
2019-04-20T09:14:40.211Z,22.61
2019-04-20T09:20:00.222Z,23.80
2019-04-20T09:23:13.135Z,24.01
2019-04-20T09:28:28.525Z,23.03
2019-04-20T09:31:11.939Z,23.35
2019-04-20T09:34:04.285Z,23.78
2019-04-20T09:36:40.846Z,23.71
2019-04-20T09:42:07.660Z,24.03
2019-04-20T09:44:42.673Z,23.92
2019-04-20T09:47:14.202Z,24.11
2019-04-20T09:49:58.063Z,24.66
2019-04-20T09:52:31.328Z,24.58
2019-04-20T09:55:09.245Z,24.84
2019-04-20T09:57:43.759Z,24.84
2019-04-20T10:00:21.267Z,25.01
2019-04-20T10:02:39.938Z,24.77
2019-04-20T10:05:13.475Z,24.77
2019-04-20T10:07:48.388Z,24.43
2019-04-20T10:10:31.144Z,24.36
2019-04-20T10:12:54.204Z,24.70
2019-04-20T10:15:28.336Z,25.33
2019-04-20T10:18:07.971Z,25.65
2019-04-20T10:20:41.778Z,25.65
2019-04-20T10:23:14.834Z,25.94
2019-04-20T10:25:46.914Z,25.95
2019-04-20T10:28:25.636Z,25.23
2019-04-20T10:30:59.047Z,25.11
2019-04-20T10:33:31.473Z,25.34
2019-04-20T10:36:05.702Z,24.96
2019-04-20T10:38:38.017Z,24.97
2019-04-20T10:41:16.937Z,25.07
2019-04-20T10:43:44.857Z,25.69
2019-04-20T10:46:18.114Z,25.57
2019-04-20T10:48:53.224Z,25.14
2019-04-20T10:51:24.154Z,24.78
2019-04-20T10:53:56.150Z,24.82
2019-04-20T10:56:29.614Z,24.67
2019-04-20T10:59:01.791Z,25.49
2019-04-20T11:01:38.113Z,25.60
2019-04-20T11:04:16.677Z,25.49
2019-04-20T11:06:48.453Z,25.41
2019-04-20T11:09:21.045Z,25.65
2019-04-20T11:11:54.462Z,26.33
2019-04-20T11:14:32.826Z,26.88
2019-04-20T11:17:02.425Z,26.76
2019-04-20T11:19:34.835Z,27.18
2019-04-20T11:22:08.281Z,27.28
2019-04-20T11:24:40.614Z,27.11
2019-04-20T11:27:12.554Z,26.84
2019-04-20T11:29:46.864Z,26.17
2019-04-20T11:32:20.179Z,25.50
2019-04-20T11:34:53.314Z,25.64
2019-04-20T11:37:25.344Z,26.16
2019-04-20T11:39:57.504Z,26.31
2019-04-20T11:42:29.941Z,26.08
2019-04-20T11:45:02.734Z,26.34
2019-04-20T11:47:35.634Z,26.77
2019-04-20T11:50:09.425Z,27.18
2019-04-20T11:52:45.886Z,26.85
2019-04-20T11:55:16.110Z,27.00
2019-04-20T11:57:49.414Z,26.91
2019-04-20T12:00:27.768Z,26.95
2019-04-20T12:03:27.976Z,26.47
2019-04-20T12:05:57.895Z,25.85
2019-04-20T12:08:29.285Z,25.24
2019-04-20T12:11:18.172Z,24.70
2019-04-20T12:13:36.592Z,24.89
2019-04-20T12:16:09.840Z,24.77
2019-04-20T12:18:42.211Z,25.10
2019-04-20T12:21:14.801Z,24.90
2019-04-20T12:23:46.991Z,24.48
2019-04-20T12:26:20.518Z,24.40
2019-04-20T12:28:53.781Z,24.08
2019-04-20T12:31:27.573Z,24.15
2019-04-20T12:34:00.210Z,24.60
2019-04-20T12:36:33.225Z,24.88
2019-04-20T12:39:09.003Z,24.68
2019-04-20T12:41:53.231Z,24.38
2019-04-20T12:44:23.644Z,23.63
2019-04-20T12:46:55.933Z,23.03
2019-04-20T12:49:29.625Z,23.02
2019-04-20T12:52:05.124Z,23.19
2019-04-20T12:54:36.900Z,23.22
2019-04-20T12:57:09.188Z,22.97
2019-04-20T12:59:44.354Z,22.79
2019-04-20T13:02:15.587Z,22.91
2019-04-20T13:04:49.064Z,23.05
2019-04-20T13:07:22.745Z,23.49
2019-04-20T13:09:56.897Z,23.49
2019-04-20T13:12:46.784Z,23.87
2019-04-20T13:16:00.402Z,23.87
2019-04-20T13:19:01.537Z,23.40
2019-04-20T13:21:34.846Z,23.40
2019-04-20T13:24:07.305Z,23.35
2019-04-20T13:26:40.677Z,23.58
2019-04-20T13:29:12.980Z,23.51
2019-04-20T13:31:45.005Z,23.72
2019-04-20T13:34:17.310Z,23.80
2019-04-20T13:36:50.474Z,23.80
2019-04-20T13:39:22.925Z,23.58
2019-04-20T13:42:03.509Z,23.37
2019-04-20T13:44:28.919Z,22.99
2019-04-20T13:47:01.125Z,22.99
2019-04-20T13:49:36.831Z,23.00
2019-04-20T13:52:09.026Z,23.11
2019-04-20T13:54:42.079Z,23.13
2019-04-20T13:57:17.778Z,22.91
2019-04-20T13:59:53.665Z,22.91
2019-04-20T14:02:58.511Z,22.95
2019-04-20T14:05:33.374Z,22.65
2019-04-20T14:08:09.499Z,22.56
2019-04-20T14:10:41.833Z,22.54
2019-04-20T14:13:16.711Z,22.61
2019-04-20T14:15:45.318Z,22.84
2019-04-20T14:18:17.439Z,22.91
2019-04-20T14:20:50.085Z,22.82
2019-04-20T14:23:23.175Z,23.14
2019-04-20T14:25:56.646Z,23.61
2019-04-20T14:28:29.182Z,23.61
2019-04-20T14:31:01.652Z,23.27
2019-04-20T14:33:34.863Z,22.95
2019-04-20T14:36:08.769Z,22.45
2019-04-20T14:38:43.754Z,22.45
2019-04-20T14:41:16.109Z,22.58
2019-04-20T14:43:48.969Z,22.90
2019-04-20T14:46:21.055Z,23.25
2019-04-20T14:48:54.511Z,23.49
2019-04-20T14:51:27.856Z,23.71
2019-04-20T14:54:01.365Z,23.70
2019-04-20T14:56:33.668Z,23.63
2019-04-20T14:59:25.326Z,23.34
2019-04-20T15:02:10.501Z,22.69
2019-04-20T15:04:45.224Z,22.64
2019-04-20T15:07:18.364Z,22.64
2019-04-20T15:09:51.170Z,22.76
2019-04-20T15:12:35.968Z,22.69
2019-04-20T15:14:58.762Z,22.48
2019-04-20T15:17:43.723Z,21.98
2019-04-20T15:20:37.926Z,21.98
2019-04-20T15:23:17.925Z,21.75
2019-04-20T15:25:50.634Z,21.75
2019-04-20T15:28:24.068Z,21.76
2019-04-20T15:30:56.405Z,21.67
2019-04-20T15:33:28.432Z,21.54
2019-04-20T15:36:00.065Z,21.44
2019-04-20T15:38:33.231Z,21.42
2019-04-20T15:41:08.615Z,21.42
2019-04-20T15:43:39.458Z,21.58
2019-04-20T15:46:13.043Z,21.64
2019-04-20T15:48:46.190Z,21.54
2019-04-20T15:51:19.488Z,21.33
2019-04-20T15:53:51.757Z,21.17
2019-04-20T15:56:22.806Z,20.97
2019-04-20T15:58:54.656Z,20.84
2019-04-20T16:01:30.333Z,20.60
2019-04-20T16:04:11.723Z,20.57
2019-04-20T16:06:43.265Z,20.55
2019-04-20T16:09:15.765Z,20.43
2019-04-20T16:11:48.839Z,20.36
2019-04-20T16:14:21.613Z,20.31
2019-04-20T16:16:53.735Z,20.22
2019-04-20T16:19:35.005Z,20.12
2019-04-20T16:21:57.567Z,19.87
2019-04-20T16:24:34.652Z,19.72
2019-04-20T16:27:17.819Z,19.64
2019-04-20T16:29:51.542Z,19.55
2019-04-20T16:32:24.699Z,19.37
2019-04-20T16:34:58.185Z,19.25
2019-04-20T16:37:30.639Z,19.03
2019-04-20T16:40:04.101Z,18.89
2019-04-20T16:42:39.266Z,18.64
2019-04-20T16:45:11.613Z,18.54
2019-04-20T16:47:46.343Z,18.45
2019-04-20T16:50:19.341Z,18.35
2019-04-20T16:52:52.696Z,18.22
2019-04-20T16:55:25.505Z,18.10
2019-04-20T16:57:57.648Z,17.96
2019-04-20T17:00:29.426Z,17.86
2019-04-20T17:03:02.591Z,17.71
2019-04-20T17:05:38.999Z,17.66
2019-04-20T17:08:11.275Z,17.61
2019-04-20T17:10:48.841Z,17.52
2019-04-20T17:13:34.151Z,17.41
2019-04-20T17:16:01.665Z,17.30
2019-04-20T17:18:37.566Z,17.13
2019-04-20T17:21:16.705Z,17.02
2019-04-20T17:23:51.211Z,16.89
2019-04-20T17:26:32.765Z,16.78
2019-04-20T17:29:22.151Z,16.66
2019-04-20T17:32:23.233Z,16.53
2019-04-20T17:35:10.556Z,16.43
2019-04-20T17:37:34.709Z,16.30
2019-04-20T17:40:27.166Z,16.19
2019-04-20T17:42:51.018Z,16.01
2019-04-20T17:45:28.809Z,15.83
2019-04-20T17:48:08.810Z,15.61
2019-04-20T17:50:55.991Z,15.41
2019-04-20T17:53:28.103Z,15.32
2019-04-20T17:55:53.024Z,15.20
2019-04-20T17:58:29.754Z,15.05
2019-04-20T18:01:29.454Z,14.94
2019-04-20T18:04:19.750Z,14.87
2019-04-20T18:06:46.694Z,14.71
2019-04-20T18:09:11.547Z,14.59
2019-04-20T18:11:44.892Z,14.51
2019-04-20T18:14:28.559Z,14.43
2019-04-20T18:17:10.148Z,14.41
2019-04-20T18:19:34.707Z,14.32
2019-04-20T18:22:09.964Z,14.20
2019-04-20T18:25:09.005Z,14.15
2019-04-20T18:27:41.555Z,14.08
2019-04-20T18:30:10.745Z,13.96
2019-04-20T18:32:38.899Z,13.82
2019-04-20T18:35:16.615Z,13.75
2019-04-20T18:37:52.573Z,13.67
2019-04-20T18:40:32.566Z,13.66
2019-04-20T18:43:04.922Z,13.58
2019-04-20T18:45:56.970Z,13.52
2019-04-20T18:48:30.509Z,13.43
2019-04-20T18:50:43.750Z,13.37
2019-04-20T18:53:20.109Z,13.30
2019-04-20T18:55:55.124Z,13.19
2019-04-20T18:58:22.835Z,13.07
2019-04-20T19:00:55.509Z,12.97
2019-04-20T19:03:34.814Z,12.89
2019-04-20T19:06:05.631Z,12.80
2019-04-20T19:08:40.501Z,12.72
2019-04-20T19:11:16.752Z,12.65
2019-04-20T19:14:12.946Z,12.64
2019-04-20T19:16:55.401Z,12.53
2019-04-20T19:19:36.697Z,12.53
2019-04-20T19:22:00.108Z,12.54
2019-04-20T19:24:36.056Z,12.53
2019-04-20T19:27:10.615Z,12.53
2019-04-20T19:29:51.776Z,12.48
2019-04-20T19:32:30.366Z,12.47
2019-04-20T19:34:59.270Z,12.51
2019-04-20T19:37:28.681Z,12.49
2019-04-20T19:40:09.613Z,12.46
2019-04-20T19:42:44.684Z,12.43
2019-04-20T19:45:32.296Z,12.39
2019-04-20T19:47:59.300Z,12.35
2019-04-20T19:50:41.399Z,12.30
2019-04-20T19:53:11.229Z,12.21
2019-04-20T19:55:38.634Z,12.08
2019-04-20T19:58:10.089Z,11.99
2019-04-20T20:00:52.155Z,11.93
2019-04-20T20:03:23.862Z,11.90
2019-04-20T20:05:57.886Z,11.84
2019-04-20T20:08:34.538Z,11.85
2019-04-20T20:11:05.066Z,11.76
2019-04-20T20:13:42.007Z,11.71
2019-04-20T20:16:18.590Z,11.68
2019-04-20T20:18:55.784Z,11.64
2019-04-20T20:21:27.244Z,11.62
2019-04-20T20:23:54.203Z,11.60
2019-04-20T20:26:34.478Z,11.53
2019-04-20T20:29:12.120Z,11.43
2019-04-20T20:31:54.019Z,11.36
2019-04-20T20:34:16.723Z,11.28
2019-04-20T20:36:54.586Z,11.22
2019-04-20T20:39:26.115Z,11.20
2019-04-20T20:42:06.386Z,11.15
2019-04-20T20:44:41.254Z,11.13
2019-04-20T20:47:32.267Z,11.13
2019-04-20T20:50:08.823Z,11.12
2019-04-20T20:52:32.333Z,11.23
2019-04-20T20:55:00.148Z,11.30
2019-04-20T20:57:37.064Z,11.37
2019-04-20T21:00:07.689Z,11.45
2019-04-20T21:02:44.808Z,11.48
2019-04-20T21:05:09.286Z,11.49
2019-04-20T21:07:42.758Z,11.49
2019-04-20T21:10:25.947Z,11.54
2019-04-20T21:12:55.398Z,11.53
2019-04-20T21:15:25.070Z,11.52
2019-04-20T21:18:20.591Z,11.45
2019-04-20T21:20:49.010Z,11.47
2019-04-20T21:23:17.554Z,11.51
2019-04-20T21:25:59.089Z,11.49
2019-04-20T21:28:35.802Z,11.46
2019-04-20T21:31:12.316Z,11.45
2019-04-20T21:33:40.690Z,11.32
2019-04-20T21:36:19.139Z,11.07
2019-04-20T21:38:48.669Z,10.82
2019-04-20T21:41:25.599Z,10.64
2019-04-20T21:44:05.518Z,10.45
2019-04-20T21:46:40.844Z,10.27
2019-04-20T21:49:23.739Z,10.16
2019-04-20T21:51:50.320Z,10.10
2019-04-20T21:54:18.113Z,10.09
2019-04-20T21:56:56.239Z,10.27
2019-04-20T21:59:34.036Z,10.45
2019-04-20T22:02:06.561Z,10.58
2019-04-20T22:04:33.355Z,10.72
2019-04-20T22:07:06.327Z,10.82
2019-04-20T22:09:41.313Z,10.91
2019-04-20T22:12:12.265Z,11.02
2019-04-20T22:14:43.893Z,11.10
2019-04-20T22:17:21.132Z,11.16
2019-04-20T22:20:04.085Z,11.18
2019-04-20T22:22:42.585Z,11.26
2019-04-20T22:25:12.179Z,11.32
2019-04-20T22:27:34.764Z,11.38
2019-04-20T22:30:06.115Z,11.42
2019-04-20T22:32:44.186Z,11.44
2019-04-20T22:35:15.508Z,11.45
2019-04-20T22:37:59.763Z,11.46
2019-04-20T22:40:33.055Z,11.46
2019-04-20T22:43:04.184Z,11.46
2019-04-20T22:45:42.665Z,11.43
2019-04-20T22:48:12.836Z,11.45
2019-04-20T22:51:01.614Z,11.41
2019-04-20T22:53:31.103Z,11.42
2019-04-20T22:56:12.298Z,11.43
2019-04-20T22:58:40.713Z,11.40
2019-04-20T23:01:04.270Z,11.39
2019-04-20T23:03:34.693Z,11.35
2019-04-20T23:06:06.955Z,11.33
2019-04-20T23:08:40.260Z,11.30
2019-04-20T23:11:17.935Z,11.25
2019-04-20T23:13:48.345Z,11.19
2019-04-20T23:16:20.956Z,11.15
2019-04-20T23:18:54.097Z,11.13
2019-04-20T23:21:26.036Z,11.09
2019-04-20T23:24:00.423Z,11.09
2019-04-20T23:26:36.771Z,11.05
2019-04-20T23:29:07.050Z,11.06
2019-04-20T23:31:46.027Z,11.04
2019-04-20T23:34:20.153Z,10.99
2019-04-20T23:36:50.220Z,11.00
2019-04-20T23:39:23.331Z,10.99
2019-04-20T23:42:00.415Z,10.96
2019-04-20T23:44:48.248Z,10.98
2019-04-20T23:47:26.125Z,10.96
2019-04-20T23:50:16.379Z,10.96
2019-04-20T23:52:53.348Z,10.94
2019-04-20T23:55:12.014Z,10.87
2019-04-20T23:57:45.968Z,10.77
